Time;durP1;ratioP1;P1;durP2;ratioP2;P2;SDS_P1;SDS_P2;PMS_P1;PMS_P2;Temp;Humidity;BMP_temperature;BMP_pressure;BME280_temperature;BME280_humidity;BME280_pressure;Samples;Min_cycle;Max_cycle;Signal;HPM_P1;HPM_P2
2024/02/17 00:00:54;;;;;;;;;;;17.60;69.10;;;;;;5054376;28;19959;-69
2024/02/17 00:03:23;;;;;;;;;;;17.50;68.80;;;;;;5054599;28;20004;-69
2024/02/17 00:05:50;;;;;;;;;;;17.50;65.80;;;;;;5054590;28;19913;-69
2024/02/17 00:08:16;;;;;;;;;;;17.50;69.40;;;;;;5054753;28;19909;-69
2024/02/17 00:10:42;;;;;;;;;;;17.50;69.10;;;;;;5054526;28;19912;-70
2024/02/17 00:13:08;;;;;;;;;;;17.50;69.10;;;;;;5054411;28;19935;-69
2024/02/17 00:15:34;;;;;;;;;;;17.40;68.80;;;;;;5054480;28;19943;-70
2024/02/17 00:18:05;;;;;;;;;;;17.50;69.00;;;;;;5054380;28;19913;-70
2024/02/17 00:20:46;;;;;;;;;;;17.40;68.90;;;;;;5052201;28;20482;-69
2024/02/17 00:23:12;;;;;;;;;;;17.60;69.20;;;;;;5053105;28;19953;-70
2024/02/17 00:25:37;;;;;;;;;;;17.50;69.40;;;;;;5054355;28;19947;-70
2024/02/17 00:28:04;;;;;;;;;;;17.50;69.30;;;;;;5053449;28;19996;-69
2024/02/17 00:30:29;;;;;;;;;;;17.50;68.70;;;;;;5053000;28;19909;-70
2024/02/17 00:32:54;;;;;;;;;;;17.60;69.30;;;;;;5053564;28;19917;-70
2024/02/17 00:35:20;;;;;;;;;;;17.50;69.60;;;;;;5053921;28;19927;-69
2024/02/17 00:37:46;;;;;;;;;;;17.60;69.50;;;;;;5053850;28;19908;-69
2024/02/17 00:40:11;;;;;;;;;;;17.60;69.70;;;;;;5053748;28;19925;-69
2024/02/17 00:42:37;;;;;;;;;;;17.50;69.10;;;;;;5053801;28;19916;-69
2024/02/17 00:45:02;;;;;;;;;;;17.50;69.70;;;;;;5053953;28;19916;-70
2024/02/17 00:47:28;;;;;;;;;;;17.50;69.20;;;;;;5053683;28;20375;-70
2024/02/17 00:49:53;;;;;;;;;;;17.60;69.70;;;;;;5053566;28;20352;-70
2024/02/17 00:52:19;;;;;;;;;;;17.50;69.50;;;;;;5053468;28;19917;-69
2024/02/17 00:54:44;;;;;;;;;;;17.60;69.00;;;;;;5053999;28;19963;-69
2024/02/17 00:57:10;;;;;;;;;;;17.60;69.50;;;;;;5053418;28;20007;-70
2024/02/17 00:59:35;;;;;;;;;;;17.50;69.70;;;;;;5053473;28;20000;-69
2024/02/17 01:02:01;;;;;;;;;;;17.60;69.20;;;;;;5053540;28;19913;-69
2024/02/17 01:04:26;;;;;;;;;;;17.50;69.70;;;;;;5053265;28;20327;-70
2024/02/17 01:06:52;;;;;;;;;;;17.60;69.70;;;;;;5053417;28;19955;-70
2024/02/17 01:09:18;;;;;;;;;;;17.50;69.60;;;;;;5053262;28;19916;-69
2024/02/17 01:11:43;;;;;;;;;;;17.60;69.70;;;;;;5053360;28;19909;-69
2024/02/17 01:14:09;;;;;;;;;;;17.50;69.60;;;;;;5053314;28;19931;-69
2024/02/17 01:16:34;;;;;;;;;;;17.70;69.70;;;;;;5035284;28;19909;-69
2024/02/17 01:19:00;;;;;;;;;;;17.50;69.60;;;;;;5052917;28;20433;-69
2024/02/17 01:21:26;;;;;;;;;;;17.60;69.40;;;;;;5052925;28;19909;-70
2024/02/17 01:23:53;;;;;;;;;;;17.60;69.00;;;;;;5053695;28;19909;-69
2024/02/17 01:26:19;;;;;;;;;;;17.60;69.40;;;;;;5053184;28;20002;-69
2024/02/17 01:28:45;;;;;;;;;;;17.60;69.50;;;;;;5053152;28;20322;-69
2024/02/17 01:31:11;;;;;;;;;;;17.50;69.40;;;;;;5053016;28;19913;-69
2024/02/17 01:33:37;;;;;;;;;;;17.60;69.70;;;;;;5052514;28;20015;-69
2024/02/17 01:36:03;;;;;;;;;;;17.60;69.40;;;;;;5053159;28;19924;-76
2024/02/17 01:38:29;;;;;;;;;;;17.60;69.00;;;;;;5052890;28;19916;-76
2024/02/17 01:40:55;;;;;;;;;;;17.60;69.60;;;;;;5052689;28;19913;-76
2024/02/17 01:43:21;;;;;;;;;;;17.60;67.90;;;;;;5052767;28;20386;-76
2024/02/17 01:45:47;;;;;;;;;;;17.60;69.40;;;;;;5052601;28;19909;-76
2024/02/17 01:48:14;;;;;;;;;;;17.60;69.40;;;;;;5052770;28;19991;-76
2024/02/17 01:50:40;;;;;;;;;;;17.60;69.60;;;;;;5052795;28;19963;-76
2024/02/17 01:53:06;;;;;;;;;;;17.60;69.50;;;;;;5052785;28;19971;-76
2024/02/17 01:55:32;;;;;;;;;;;17.50;69.30;;;;;;5052399;28;19909;-76
2024/02/17 01:57:58;;;;;;;;;;;17.60;69.70;;;;;;5052618;28;19931;-75
2024/02/17 02:00:24;;;;;;;;;;;17.50;69.40;;;;;;5052270;28;19904;-75
2024/02/17 02:02:50;;;;;;;;;;;17.60;69.00;;;;;;5034821;28;19920;-75
2024/02/17 02:05:16;;;;;;;;;;;17.50;69.30;;;;;;5052543;28;20383;-75
2024/02/17 02:07:42;;;;;;;;;;;17.60;69.60;;;;;;5052231;28;19963;-75
2024/02/17 02:10:08;;;;;;;;;;;17.60;69.10;;;;;;5052738;28;19913;-76
2024/02/17 02:12:34;;;;;;;;;;;17.50;69.30;;;;;;5052350;28;19917;-75
2024/02/17 02:15:01;;;;;;;;;;;17.50;69.30;;;;;;5052111;28;19913;-76
2024/02/17 02:17:27;;;;;;;;;;;17.50;70.20;;;;;;5052161;28;19909;-75
2024/02/17 02:19:54;;;;;;;;;;;17.60;69.30;;;;;;5052460;28;19909;-76
2024/02/17 02:22:20;;;;;;;;;;;17.60;69.40;;;;;;5052491;28;19995;-75
2024/02/17 02:24:47;;;;;;;;;;;17.60;69.10;;;;;;5052044;28;20009;-75
2024/02/17 02:27:13;;;;;;;;;;;17.50;70.30;;;;;;5052416;28;19990;-75
2024/02/17 02:29:44;;;;;;;;;;;17.50;69.30;;;;;;5052047;28;20366;-75
2024/02/17 02:32:10;;;;;;;;;;;17.50;69.60;;;;;;5052248;28;19971;-75
2024/02/17 02:34:36;;;;;;;;;;;17.50;69.40;;;;;;5051807;28;19921;-75
2024/02/17 02:37:02;;;;;;;;;;;17.60;69.40;;;;;;5051956;28;19909;-75
2024/02/17 02:39:28;;;;;;;;;;;17.50;69.30;;;;;;5052666;28;19916;-75
2024/02/17 02:41:54;;;;;;;;;;;17.50;69.40;;;;;;5051878;28;19909;-76
2024/02/17 02:44:20;;;;;;;;;;;17.50;69.30;;;;;;5052158;28;19916;-75
2024/02/17 02:46:46;;;;;;;;;;;17.60;69.70;;;;;;5055720;28;19995;-75
2024/02/17 02:49:12;;;;;;;;;;;17.50;69.40;;;;;;5056158;28;19915;-75
2024/02/17 02:51:38;;;;;;;;;;;17.50;69.40;;;;;;5054540;28;19909;-75
2024/02/17 02:54:03;;;;;;;;;;;17.50;69.50;;;;;;5055787;28;19921;-75
2024/02/17 02:56:28;;;;;;;;;;;17.50;69.60;;;;;;5055703;28;20308;-75
2024/02/17 02:58:54;;;;;;;;;;;17.60;69.60;;;;;;5055698;28;20008;-75
2024/02/17 03:01:19;;;;;;;;;;;17.60;69.00;;;;;;5055643;28;19913;-75
2024/02/17 03:03:49;;;;;;;;;;;17.50;69.70;;;;;;5055601;28;19909;-75
2024/02/17 03:06:14;;;;;;;;;;;17.60;65.40;;;;;;5055882;28;20054;-75
2024/02/17 03:08:40;;;;;;;;;;;17.60;69.40;;;;;;5055621;28;19917;-75
2024/02/17 03:11:06;;;;;;;;;;;17.30;68.90;;;;;;5055587;28;20381;-75
2024/02/17 03:13:36;;;;;;;;;;;17.50;69.50;;;;;;5055616;28;19974;-75
2024/02/17 03:16:01;;;;;;;;;;;17.50;65.40;;;;;;5055412;28;19916;-75
2024/02/17 03:18:27;;;;;;;;;;;17.40;69.50;;;;;;5055379;28;19909;-75
2024/02/17 03:20:52;;;;;;;;;;;17.50;69.30;;;;;;5055322;28;19909;-75
2024/02/17 03:23:17;;;;;;;;;;;17.50;69.60;;;;;;5055277;28;20280;-75
2024/02/17 03:25:43;;;;;;;;;;;17.40;69.30;;;;;;5055662;28;20012;-75
2024/02/17 03:28:09;;;;;;;;;;;17.50;69.50;;;;;;5055156;28;20011;-75
2024/02/17 03:30:34;;;;;;;;;;;17.50;69.20;;;;;;5055143;28;19909;-75
2024/02/17 03:33:00;;;;;;;;;;;17.50;69.60;;;;;;5054901;28;19947;-75
2024/02/17 03:35:25;;;;;;;;;;;17.00;69.30;;;;;;5055108;28;19908;-75
2024/02/17 03:37:51;;;;;;;;;;;17.50;69.10;;;;;;5055129;28;19978;-76
2024/02/17 03:40:16;;;;;;;;;;;17.50;69.80;;;;;;5037085;28;19909;-76
2024/02/17 03:42:42;;;;;;;;;;;17.50;69.60;;;;;;5055136;28;20325;-75
2024/02/17 03:45:09;;;;;;;;;;;19.50;71.20;;;;;;5055092;28;19909;-75
2024/02/17 03:47:35;;;;;;;;;;;17.60;69.40;;;;;;5054717;28;20343;-75
2024/02/17 03:50:01;;;;;;;;;;;17.50;69.90;;;;;;5054978;28;19920;-75
2024/02/17 03:52:26;;;;;;;;;;;17.60;69.60;;;;;;5054910;28;19917;-75
2024/02/17 03:54:52;;;;;;;;;;;17.50;70.00;;;;;;5055319;28;19909;-75
2024/02/17 03:57:20;;;;;;;;;;;17.50;69.80;;;;;;5035369;28;20294;-75
2024/02/17 03:59:45;;;;;;;;;;;17.60;70.00;;;;;;5054538;28;20418;-75
2024/02/17 04:02:11;;;;;;;;;;;17.60;69.50;;;;;;5054347;28;20007;-75
2024/02/17 04:04:37;;;;;;;;;;;17.50;70.00;;;;;;5054468;28;19956;-75
2024/02/17 04:07:05;;;;;;;;;;;17.50;70.00;;;;;;5053774;28;21481;-75
2024/02/17 04:09:31;;;;;;;;;;;17.50;70.10;;;;;;5054678;28;19925;-75
2024/02/17 04:11:57;;;;;;;;;;;17.50;69.80;;;;;;5054182;28;19921;-75
2024/02/17 04:14:23;;;;;;;;;;;17.50;69.90;;;;;;5054303;28;20393;-75
2024/02/17 04:16:49;;;;;;;;;;;17.60;70.20;;;;;;5054492;28;19909;-75
2024/02/17 04:19:15;;;;;;;;;;;17.50;69.90;;;;;;5054152;28;19918;-75
2024/02/17 04:21:41;;;;;;;;;;;17.50;69.80;;;;;;5054445;28;19999;-75
2024/02/17 04:24:07;;;;;;;;;;;17.60;70.00;;;;;;5054929;28;19909;-75
2024/02/17 04:26:33;;;;;;;;;;;17.60;69.30;;;;;;5054366;28;19963;-75
2024/02/17 04:28:59;;;;;;;;;;;17.60;70.10;;;;;;5053930;28;19940;-75
2024/02/17 04:31:25;;;;;;;;;;;17.50;69.90;;;;;;5054461;28;19909;-75
2024/02/17 04:33:51;;;;;;;;;;;17.50;69.90;;;;;;5053604;28;19921;-75
2024/02/17 04:36:17;;;;;;;;;;;17.70;70.20;;;;;;5054184;28;19974;-75
2024/02/17 04:38:43;;;;;;;;;;;17.50;69.90;;;;;;5035987;28;20387;-75
2024/02/17 04:41:09;;;;;;;;;;;17.50;70.10;;;;;;5054005;28;19992;-75
2024/02/17 04:43:35;;;;;;;;;;;17.50;69.80;;;;;;5054065;28;20038;-75
2024/02/17 04:46:01;;;;;;;;;;;17.60;70.10;;;;;;5053644;28;19909;-75
2024/02/17 04:48:26;;;;;;;;;;;17.50;69.80;;;;;;5053642;28;20022;-75
2024/02/17 04:50:52;;;;;;;;;;;17.50;70.00;;;;;;5054101;28;19959;-69
2024/02/17 04:53:18;;;;;;;;;;;17.50;70.00;;;;;;5053454;28;19917;-69
2024/02/17 04:55:43;;;;;;;;;;;17.50;70.10;;;;;;5053546;28;19915;-69
2024/02/17 04:58:16;;;;;;;;;;;17.50;70.60;;;;;;5053452;28;19909;-69
2024/02/17 05:00:42;;;;;;;;;;;17.50;69.80;;;;;;5060179;28;19913;-70
2024/02/17 05:03:07;;;;;;;;;;;17.60;69.60;;;;;;5053317;28;19978;-70
2024/02/17 05:05:33;;;;;;;;;;;17.50;69.70;;;;;;5053332;28;19915;-70
2024/02/17 05:07:58;;;;;;;;;;;17.50;70.10;;;;;;5052829;28;19909;-69
2024/02/17 05:10:24;;;;;;;;;;;17.40;69.70;;;;;;5053213;28;19928;-69
2024/02/17 05:12:50;;;;;;;;;;;17.50;70.00;;;;;;5053318;28;19994;-69
2024/02/17 05:15:15;;;;;;;;;;;17.60;69.60;;;;;;5053128;28;19909;-69
2024/02/17 05:17:42;;;;;;;;;;;17.50;69.90;;;;;;5053079;28;20268;-69
2024/02/17 05:20:08;;;;;;;;;;;17.50;69.70;;;;;;5053473;28;19935;-70
2024/02/17 05:22:34;;;;;;;;;;;17.40;69.50;;;;;;5052899;28;19956;-69
2024/02/17 05:24:59;;;;;;;;;;;17.40;69.80;;;;;;5052952;28;19912;-69
2024/02/17 05:27:25;;;;;;;;;;;17.50;70.00;;;;;;5052933;28;19963;-69
2024/02/17 05:29:51;;;;;;;;;;;17.50;69.10;;;;;;5052891;28;19913;-69
2024/02/17 05:32:16;;;;;;;;;;;17.50;69.90;;;;;;5052818;28;20434;-69
2024/02/17 05:34:42;;;;;;;;;;;17.50;70.20;;;;;;5052721;28;19920;-69
2024/02/17 05:37:08;;;;;;;;;;;17.50;69.80;;;;;;5052968;28;19913;-69
2024/02/17 05:39:34;;;;;;;;;;;17.50;69.80;;;;;;5052942;28;20375;-70
2024/02/17 05:42:00;;;;;;;;;;;17.50;69.70;;;;;;5052947;28;20103;-69
2024/02/17 05:44:26;;;;;;;;;;;17.50;70.00;;;;;;5052496;28;19916;-70
2024/02/17 05:46:52;;;;;;;;;;;17.40;69.50;;;;;;5052540;28;20343;-69
2024/02/17 05:49:21;;;;;;;;;;;17.40;70.00;;;;;;5052928;28;19919;-69
2024/02/17 05:51:51;;;;;;;;;;;17.50;67.00;;;;;;5052760;28;19913;-69
2024/02/17 05:54:18;;;;;;;;;;;17.50;65.70;;;;;;5052261;28;19955;-69
2024/02/17 05:56:44;;;;;;;;;;;17.50;69.70;;;;;;5052385;28;19909;-70
2024/02/17 05:59:10;;;;;;;;;;;17.20;70.00;;;;;;5052673;28;19908;-70
2024/02/17 06:01:36;;;;;;;;;;;17.50;69.20;;;;;;5052329;28;19988;-69
2024/02/17 06:04:02;;;;;;;;;;;17.50;69.90;;;;;;5052259;28;19909;-69
2024/02/17 06:06:28;;;;;;;;;;;17.50;69.60;;;;;;5052575;28;19909;-69
2024/02/17 06:08:54;;;;;;;;;;;17.40;69.70;;;;;;5052489;28;19916;-69
2024/02/17 06:11:20;;;;;;;;;;;17.40;69.60;;;;;;5052361;28;20279;-70
2024/02/17 06:13:46;;;;;;;;;;;17.40;69.70;;;;;;5052101;28;19917;-69
2024/02/17 06:16:13;;;;;;;;;;;17.50;69.70;;;;;;5052703;28;20008;-69
2024/02/17 06:21:23;;;;;;;;;;;17.50;66.50;;;;;;5051856;28;19955;-69
2024/02/17 06:23:51;;;;;;;;;;;17.40;69.60;;;;;;5052356;28;19909;-69
2024/02/17 06:26:26;;;;;;;;;;;17.40;70.20;;;;;;5052354;28;19909;-69
2024/02/17 06:28:53;;;;;;;;;;;17.40;69.90;;;;;;5052536;28;19960;-70
2024/02/17 06:31:19;;;;;;;;;;;17.40;70.20;;;;;;5052250;28;19955;-75
2024/02/17 06:33:45;;;;;;;;;;;17.50;70.20;;;;;;5051866;28;19921;-75
2024/02/17 06:36:11;;;;;;;;;;;17.40;70.20;;;;;;5052029;28;20321;-75
2024/02/17 06:38:37;;;;;;;;;;;17.40;70.20;;;;;;5052253;28;19955;-75
2024/02/17 06:41:03;;;;;;;;;;;17.40;70.20;;;;;;5052010;28;20295;-75
2024/02/17 06:43:30;;;;;;;;;;;17.50;70.30;;;;;;5051817;28;20429;-75
2024/02/17 06:45:56;;;;;;;;;;;17.40;70.30;;;;;;5051951;28;19912;-75
2024/02/17 06:48:21;;;;;;;;;;;17.40;70.60;;;;;;5052170;28;19954;-75
2024/02/17 06:50:47;;;;;;;;;;;17.50;70.50;;;;;;5051775;28;19908;-75
2024/02/17 06:53:13;;;;;;;;;;;17.40;70.40;;;;;;5052069;28;19917;-75
2024/02/17 06:55:39;;;;;;;;;;;17.50;70.70;;;;;;5052062;28;19957;-75
2024/02/17 06:58:05;;;;;;;;;;;17.60;70.60;;;;;;5052089;28;19913;-75
2024/02/17 07:00:31;;;;;;;;;;;17.40;70.70;;;;;;5051696;28;19931;-75
2024/02/17 07:02:57;;;;;;;;;;;17.50;70.50;;;;;;5052458;28;19920;-74
2024/02/17 07:05:23;;;;;;;;;;;17.40;70.90;;;;;;5052040;28;19980;-76
2024/02/17 07:07:49;;;;;;;;;;;17.50;70.80;;;;;;5051685;28;20351;-76
2024/02/17 07:10:14;;;;;;;;;;;17.40;70.80;;;;;;5051678;28;19908;-75
2024/02/17 07:12:40;;;;;;;;;;;17.50;70.80;;;;;;5051550;28;20423;-74
2024/02/17 07:15:05;;;;;;;;;;;17.60;70.80;;;;;;5051736;28;19909;-75
2024/02/17 07:17:31;;;;;;;;;;;17.50;70.20;;;;;;5051656;28;19908;-75
2024/02/17 07:19:56;;;;;;;;;;;17.50;71.00;;;;;;5051577;28;19909;-75
2024/02/17 07:22:22;;;;;;;;;;;17.50;71.20;;;;;;5051816;28;19951;-75
2024/02/17 07:24:48;;;;;;;;;;;17.50;71.00;;;;;;5051528;28;19970;-75
2024/02/17 07:27:15;;;;;;;;;;;17.50;71.20;;;;;;5033895;28;20413;-75
2024/02/17 07:29:42;;;;;;;;;;;17.50;71.00;;;;;;5051445;28;19963;-75
2024/02/17 07:32:08;;;;;;;;;;;17.50;71.50;;;;;;5054127;28;19909;-75
2024/02/17 07:34:33;;;;;;;;;;;17.50;71.20;;;;;;5054940;28;19920;-75
2024/02/17 07:36:59;;;;;;;;;;;17.40;71.20;;;;;;5055334;28;19916;-75
2024/02/17 07:39:26;;;;;;;;;;;17.50;71.00;;;;;;5054875;28;19909;-75
2024/02/17 07:41:51;;;;;;;;;;;17.70;71.30;;;;;;5054974;28;20003;-76
2024/02/17 07:44:19;;;;;;;;;;;17.60;70.60;;;;;;5055224;28;19998;-75
2024/02/17 07:46:45;;;;;;;;;;;17.50;71.30;;;;;;5054793;28;19909;-70
2024/02/17 07:49:10;;;;;;;;;;;17.50;70.90;;;;;;5036871;28;19967;-69
2024/02/17 07:51:38;;;;;;;;;;;17.60;71.00;;;;;;5054726;28;19938;-69
2024/02/17 07:54:03;;;;;;;;;;;17.60;70.40;;;;;;5036682;28;19916;-70
2024/02/17 07:56:30;;;;;;;;;;;17.60;70.90;;;;;;5054638;28;19945;-69
2024/02/17 07:58:56;;;;;;;;;;;17.50;70.70;;;;;;5054568;28;20431;-69
2024/02/17 08:01:21;;;;;;;;;;;17.40;70.30;;;;;;5055271;28;19909;-69
2024/02/17 08:03:47;;;;;;;;;;;17.50;71.10;;;;;;5054481;28;19999;-69
2024/02/17 08:06:15;;;;;;;;;;;17.60;71.20;;;;;;5054508;28;19912;-69
2024/02/17 08:08:42;;;;;;;;;;;17.60;71.10;;;;;;5054387;28;19913;-69
2024/02/17 08:11:08;;;;;;;;;;;17.50;70.80;;;;;;5054405;28;19909;-69
2024/02/17 08:13:34;;;;;;;;;;;17.60;71.10;;;;;;5054587;28;20306;-70
2024/02/17 08:16:00;;;;;;;;;;;17.60;70.80;;;;;;5054519;28;19913;-69
2024/02/17 08:18:26;;;;;;;;;;;17.50;70.90;;;;;;5054530;28;19912;-69
2024/02/17 08:20:52;;;;;;;;;;;17.60;70.80;;;;;;5054412;28;19909;-69
2024/02/17 08:23:17;;;;;;;;;;;17.60;70.90;;;;;;5054083;28;20363;-70
2024/02/17 08:25:43;;;;;;;;;;;17.50;71.20;;;;;;5054091;28;19944;-71
2024/02/17 08:28:08;;;;;;;;;;;17.50;71.20;;;;;;5054087;28;19909;-71
2024/02/17 08:30:34;;;;;;;;;;;17.50;70.70;;;;;;5054531;28;19968;-70
2024/02/17 08:32:59;;;;;;;;;;;17.40;70.70;;;;;;5053688;28;20007;-74
2024/02/17 08:35:25;;;;;;;;;;;17.50;70.90;;;;;;5053987;28;19999;-70
2024/02/17 08:37:50;;;;;;;;;;;17.50;70.80;;;;;;5053811;28;19920;-71
2024/02/17 08:40:16;;;;;;;;;;;17.40;70.70;;;;;;5053758;28;19916;-70
2024/02/17 08:42:41;;;;;;;;;;;17.50;70.60;;;;;;5053136;28;19909;-70
2024/02/17 08:45:07;;;;;;;;;;;17.50;70.80;;;;;;5035790;28;20394;-70
2024/02/17 08:47:33;;;;;;;;;;;17.60;70.20;;;;;;5053617;28;19912;-72
2024/02/17 08:49:59;;;;;;;;;;;17.50;71.40;;;;;;5053486;28;19976;-73
2024/02/17 08:52:25;;;;;;;;;;;17.60;70.90;;;;;;5053386;28;19917;-73
2024/02/17 08:54:50;;;;;;;;;;;17.50;70.70;;;;;;5035648;28;20062;-74
2024/02/17 08:57:16;;;;;;;;;;;17.50;70.60;;;;;;5053647;28;19960;-73
2024/02/17 08:59:42;;;;;;;;;;;17.50;70.80;;;;;;5053308;28;19913;-73
2024/02/17 09:02:08;;;;;;;;;;;17.50;70.20;;;;;;5053454;28;20122;-77
2024/02/17 09:04:33;;;;;;;;;;;17.70;70.90;;;;;;5053320;28;19951;-72
2024/02/17 09:06:59;;;;;;;;;;;17.50;70.50;;;;;;5053060;28;19935;-73
2024/02/17 09:09:26;;;;;;;;;;;17.50;70.50;;;;;;5053319;28;19945;-70
2024/02/17 09:11:52;;;;;;;;;;;17.50;70.70;;;;;;5053040;28;19952;-72
2024/02/17 09:14:18;;;;;;;;;;;17.50;70.60;;;;;;5035134;28;19955;-70
2024/02/17 09:16:44;;;;;;;;;;;17.50;70.50;;;;;;5052938;28;19916;-70
2024/02/17 09:19:09;;;;;;;;;;;17.50;70.80;;;;;;5052877;28;19915;-70
2024/02/17 09:21:36;;;;;;;;;;;17.50;70.70;;;;;;5052825;28;20398;-71
2024/02/17 09:24:02;;;;;;;;;;;17.50;70.80;;;;;;5053849;28;19916;-70
2024/02/17 09:26:27;;;;;;;;;;;17.50;71.00;;;;;;5052862;28;19938;-70
2024/02/17 09:28:53;;;;;;;;;;;17.50;70.60;;;;;;5052721;28;20327;-84
2024/02/17 09:31:18;;;;;;;;;;;17.60;70.10;;;;;;5034739;28;20075;-71
2024/02/17 09:33:44;;;;;;;;;;;17.60;70.10;;;;;;5052881;28;19933;-71
2024/02/17 09:36:09;;;;;;;;;;;17.50;70.20;;;;;;5052623;28;19909;-71
2024/02/17 09:38:35;;;;;;;;;;;17.50;70.50;;;;;;5052452;28;19909;-70
2024/02/17 09:41:01;;;;;;;;;;;17.50;70.30;;;;;;5052722;28;20429;-71
2024/02/17 09:43:26;;;;;;;;;;;17.60;70.40;;;;;;5034580;28;19962;-71
2024/02/17 09:45:52;;;;;;;;;;;17.50;70.70;;;;;;5052484;28;19948;-70
2024/02/17 09:48:19;;;;;;;;;;;17.50;70.50;;;;;;5052522;28;19908;-70
2024/02/17 09:50:49;;;;;;;;;;;17.60;70.80;;;;;;5052288;28;20375;-71
2024/02/17 09:53:15;;;;;;;;;;;17.50;70.60;;;;;;5052501;28;19917;-71
2024/02/17 09:55:46;;;;;;;;;;;17.60;70.80;;;;;;5052331;28;19970;-70
2024/02/17 09:58:11;;;;;;;;;;;17.50;70.40;;;;;;5058995;28;19943;-70
2024/02/17 10:00:37;;;;;;;;;;;17.60;70.40;;;;;;5052317;28;19915;-72
2024/02/17 10:03:04;;;;;;;;;;;17.60;70.00;;;;;;5052736;28;19948;-76
2024/02/17 10:05:31;;;;;;;;;;;17.60;70.10;;;;;;5052202;28;20521;-76
2024/02/17 10:07:57;;;;;;;;;;;17.60;70.80;;;;;;5052568;28;19920;-76
2024/02/17 10:10:23;;;;;;;;;;;17.60;70.50;;;;;;5052282;28;19909;-77
2024/02/17 10:12:56;;;;;;;;;;;17.50;70.60;;;;;;5052255;28;19916;-76
2024/02/17 10:15:23;;;;;;;;;;;17.50;66.30;;;;;;5051331;28;19916;-76
2024/02/17 10:17:49;;;;;;;;;;;17.50;70.80;;;;;;5051254;28;19916;-76
2024/02/17 10:20:15;;;;;;;;;;;17.50;70.80;;;;;;5050963;28;19941;-76
2024/02/17 10:22:41;;;;;;;;;;;17.50;70.50;;;;;;5050946;28;19913;-76
2024/02/17 10:25:07;;;;;;;;;;;17.50;71.00;;;;;;5050851;28;19909;-76
2024/02/17 10:27:33;;;;;;;;;;;17.60;69.70;;;;;;5050789;28;19963;-76
2024/02/17 10:30:08;;;;;;;;;;;17.50;70.30;;;;;;5051527;28;20318;-76
2024/02/17 10:32:34;;;;;;;;;;;17.50;66.00;;;;;;5052534;28;19963;-76
2024/02/17 10:35:03;;;;;;;;;;;17.50;70.40;;;;;;5051889;28;19920;-76
2024/02/17 10:37:33;;;;;;;;;;;17.60;66.20;;;;;;5052238;28;19924;-75
2024/02/17 10:40:00;;;;;;;;;;;17.60;70.40;;;;;;5052070;28;20007;-76
2024/02/17 10:42:26;;;;;;;;;;;17.50;70.20;;;;;;5052078;28;20429;-76
2024/02/17 10:44:52;;;;;;;;;;;17.50;70.40;;;;;;5052049;28;20450;-76
2024/02/17 10:47:20;;;;;;;;;;;17.50;70.30;;;;;;5051993;28;19951;-75
2024/02/17 10:49:48;;;;;;;;;;;17.50;70.40;;;;;;5052020;28;19909;-77
2024/02/17 10:52:15;;;;;;;;;;;17.50;70.30;;;;;;5051862;28;19938;-77
2024/02/17 10:54:54;;;;;;;;;;;17.60;70.40;;;;;;5052039;28;19958;-78
2024/02/17 10:57:21;;;;;;;;;;;17.50;66.00;;;;;;5051995;28;20479;-76
2024/02/17 10:59:51;;;;;;;;;;;17.60;69.70;;;;;;5052372;28;19985;-75
2024/02/17 11:02:18;;;;;;;;;;;17.90;69.90;;;;;;5051708;28;19909;-75
2024/02/17 11:04:44;;;;;;;;;;;17.50;70.40;;;;;;5052054;28;19994;-76
2024/02/17 11:07:10;;;;;;;;;;;17.50;70.20;;;;;;5054323;28;20403;-75
2024/02/17 11:09:36;;;;;;;;;;;17.50;70.40;;;;;;5055912;28;19940;-74
2024/02/17 11:12:20;;;;;;;;;;;17.50;70.10;;;;;;5038025;28;20417;-77
2024/02/17 11:14:47;;;;;;;;;;;17.50;66.20;;;;;;5055812;28;19917;-73
2024/02/17 11:17:13;;;;;;;;;;;17.50;70.30;;;;;;5055559;28;19909;-72
2024/02/17 11:19:39;;;;;;;;;;;17.60;70.30;;;;;;5055710;28;19909;-72
2024/02/17 11:22:07;;;;;;;;;;;17.60;70.40;;;;;;5055421;28;19948;-73
2024/02/17 11:24:35;;;;;;;;;;;17.60;68.10;;;;;;5055340;28;19908;-72
2024/02/17 11:27:05;;;;;;;;;;;17.60;70.70;;;;;;5055546;28;19909;-74
2024/02/17 11:29:33;;;;;;;;;;;17.60;70.10;;;;;;5056016;28;19913;-73
2024/02/17 11:31:59;;;;;;;;;;;17.50;70.40;;;;;;5055203;28;19970;-74
2024/02/17 11:34:26;;;;;;;;;;;17.60;70.40;;;;;;5055035;28;19921;-73
2024/02/17 11:36:52;;;;;;;;;;;17.60;70.40;;;;;;5055167;28;19908;-73
2024/02/17 11:39:19;;;;;;;;;;;17.60;70.50;;;;;;5055016;28;19908;-73
2024/02/17 11:41:45;;;;;;;;;;;17.60;70.20;;;;;;5055102;28;19999;-72
2024/02/17 11:44:11;;;;;;;;;;;15.40;69.20;;;;;;5055336;28;20016;-73
2024/02/17 11:46:37;;;;;;;;;;;17.60;70.50;;;;;;5054943;28;20359;-73
2024/02/17 11:49:09;;;;;;;;;;;17.70;70.50;;;;;;5054953;28;19909;-73
2024/02/17 11:51:35;;;;;;;;;;;17.90;66.40;;;;;;5036998;28;20008;-73
2024/02/17 11:54:01;;;;;;;;;;;17.60;70.10;;;;;;5054808;28;19927;-73
2024/02/17 11:56:26;;;;;;;;;;;17.60;70.90;;;;;;5055291;28;20318;-73
2024/02/17 11:58:53;;;;;;;;;;;17.70;70.30;;;;;;5054814;28;19958;-72
2024/02/17 12:01:19;;;;;;;;;;;17.60;70.00;;;;;;5055030;28;20252;-73
2024/02/17 12:03:45;;;;;;;;;;;17.70;70.40;;;;;;5054901;28;19909;-73
2024/02/17 12:06:11;;;;;;;;;;;17.50;70.30;;;;;;5054673;28;19909;-73
2024/02/17 12:08:38;;;;;;;;;;;17.70;70.60;;;;;;5054873;28;19909;-73
2024/02/17 12:11:04;;;;;;;;;;;17.70;70.40;;;;;;5054471;28;19915;-74
2024/02/17 12:13:29;;;;;;;;;;;17.60;70.60;;;;;;5054372;28;20282;-74
2024/02/17 12:16:09;;;;;;;;;;;17.60;70.40;;;;;;5054501;28;19978;-74
2024/02/17 12:18:38;;;;;;;;;;;17.70;66.40;;;;;;5059955;28;20011;-74
2024/02/17 12:21:06;;;;;;;;;;;17.60;66.40;;;;;;5054292;28;20437;-74
2024/02/17 12:23:34;;;;;;;;;;;17.60;69.20;;;;;;5036871;28;19962;-74
2024/02/17 12:26:01;;;;;;;;;;;17.70;69.80;;;;;;5054726;28;19916;-76
2024/02/17 12:28:28;;;;;;;;;;;17.70;70.60;;;;;;5054238;28;20256;-76
2024/02/17 12:30:53;;;;;;;;;;;17.70;70.80;;;;;;5054101;28;20371;-76
2024/02/17 12:33:20;;;;;;;;;;;17.60;70.40;;;;;;5054036;28;20015;-76
2024/02/17 12:35:47;;;;;;;;;;;17.70;70.60;;;;;;5054310;28;19909;-76
2024/02/17 12:38:13;;;;;;;;;;;17.60;70.60;;;;;;5054036;28;19909;-71
2024/02/17 12:40:38;;;;;;;;;;;17.70;70.50;;;;;;5053982;28;20007;-71
2024/02/17 12:43:04;;;;;;;;;;;17.60;70.20;;;;;;5053857;28;19909;-70
2024/02/17 12:45:31;;;;;;;;;;;17.70;69.80;;;;;;5053923;28;19916;-69
2024/02/17 12:47:57;;;;;;;;;;;17.70;70.50;;;;;;5053992;28;19913;-70
2024/02/17 12:50:23;;;;;;;;;;;17.70;70.40;;;;;;5053791;28;20347;-70
2024/02/17 12:52:49;;;;;;;;;;;17.70;70.00;;;;;;5053687;28;20324;-70
2024/02/17 12:55:15;;;;;;;;;;;17.70;70.00;;;;;;5053705;28;19909;-71
2024/02/17 12:57:44;;;;;;;;;;;17.70;70.70;;;;;;5053696;28;19913;-70
2024/02/17 13:00:11;;;;;;;;;;;17.60;66.40;;;;;;5053561;28;19909;-70
2024/02/17 13:02:36;;;;;;;;;;;17.70;70.00;;;;;;5053739;28;19912;-70
2024/02/17 13:05:02;;;;;;;;;;;17.70;70.60;;;;;;5053375;28;19916;-70
2024/02/17 13:07:48;;;;;;;;;;;17.70;70.50;;;;;;5053260;28;20406;-70
2024/02/17 13:10:33;;;;;;;;;;;17.70;70.80;;;;;;5053301;28;19954;-70
2024/02/17 13:12:59;;;;;;;;;;;17.60;70.80;;;;;;5053748;28;19913;-70
2024/02/17 13:15:25;;;;;;;;;;;17.70;70.90;;;;;;5053511;28;19970;-69
2024/02/17 13:17:51;;;;;;;;;;;17.70;70.80;;;;;;5053594;28;19935;-70
2024/02/17 13:20:16;;;;;;;;;;;17.80;70.90;;;;;;5053213;28;19963;-70
2024/02/17 13:22:42;;;;;;;;;;;17.70;70.40;;;;;;5053207;28;19909;-70
2024/02/17 13:25:10;;;;;;;;;;;17.70;70.80;;;;;;5053203;28;19954;-70
2024/02/17 13:27:39;;;;;;;;;;;17.60;70.00;;;;;;5053142;28;19954;-70
2024/02/17 13:30:06;;;;;;;;;;;17.70;70.10;;;;;;5052713;28;20046;-70
2024/02/17 13:32:31;;;;;;;;;;;17.70;68.70;;;;;;5052928;28;19940;-70
2024/02/17 13:34:57;;;;;;;;;;;17.70;70.70;;;;;;5052734;28;19925;-70
2024/02/17 13:37:22;;;;;;;;;;;17.70;70.60;;;;;;5053124;28;20326;-70
2024/02/17 13:39:48;;;;;;;;;;;17.70;70.60;;;;;;5052928;28;20279;-70
2024/02/17 13:42:13;;;;;;;;;;;17.70;70.90;;;;;;5053338;28;19943;-70
2024/02/17 13:44:39;;;;;;;;;;;17.70;70.60;;;;;;5052789;28;20375;-70
2024/02/17 13:47:04;;;;;;;;;;;17.70;70.70;;;;;;5052827;28;19912;-70
2024/02/17 13:49:30;;;;;;;;;;;17.70;70.50;;;;;;5052693;28;20467;-70
2024/02/17 13:51:55;;;;;;;;;;;17.70;70.80;;;;;;5052882;28;19916;-70
2024/02/17 13:54:21;;;;;;;;;;;17.80;70.60;;;;;;5052655;28;20279;-69
2024/02/17 13:56:46;;;;;;;;;;;17.70;70.70;;;;;;5052669;28;20371;-70
2024/02/17 13:59:12;;;;;;;;;;;17.80;70.60;;;;;;5052594;28;19971;-69
2024/02/17 14:01:39;;;;;;;;;;;17.60;70.00;;;;;;5052605;28;19913;-70
2024/02/17 14:04:04;;;;;;;;;;;17.70;70.50;;;;;;5052574;28;19963;-70
2024/02/17 14:06:30;;;;;;;;;;;17.80;70.70;;;;;;5052455;28;20112;-70
2024/02/17 14:08:55;;;;;;;;;;;17.80;70.40;;;;;;5052972;28;19909;-73
2024/02/17 14:11:21;;;;;;;;;;;17.80;70.50;;;;;;5052387;28;19909;-74
2024/02/17 14:13:46;;;;;;;;;;;17.80;70.50;;;;;;5052537;28;19939;-74